Time;durP1;ratioP1;P1;durP2;ratioP2;P2;SDS_P1;SDS_P2;PMS_P1;PMS_P2;Temp;Humidity;BMP_temperature;BMP_pressure;BME280_temperature;BME280_humidity;BME280_pressure;Samples;Min_cycle;Max_cycle;Signal;HPM_P1;HPM_P2
2022/03/06 00:01:17;;;;;;;;;69.75;53.25;;;;;10.02;62.99;101705.22;5022059;28;45439;-82
2022/03/06 00:03:44;;;;;;;;;74.50;54.75;;;;;10.34;62.92;101757.69;5026229;28;45373;-82
2022/03/06 00:06:10;;;;;;;;;75.00;59.50;;;;;10.32;62.85;101760.44;5019076;28;45454;-82
2022/03/06 00:08:35;;;;;;;;;71.00;56.25;;;;;10.21;62.75;101749.13;5021836;28;45336;-82
2022/03/06 00:11:00;;;;;;;;;74.75;58.25;;;;;9.92;62.82;101702.81;5027773;28;45787;-82
2022/03/06 00:13:26;;;;;;;;;73.50;58.75;;;;;10.18;62.59;101765.19;5025629;28;45433;-82
2022/03/06 00:15:51;;;;;;;;;67.25;52.00;;;;;9.92;62.32;101715.25;5024257;28;46467;-83
2022/03/06 00:18:17;;;;;;;;;68.50;53.00;;;;;9.99;62.19;101731.94;5022680;28;45381;-83
2022/03/06 00:20:43;;;;;;;;;63.50;51.25;;;;;10.07;62.04;101751.28;5024632;28;45612;-82
2022/03/06 00:23:09;;;;;;;;;73.50;56.25;;;;;9.86;62.03;101712.75;5027350;28;45494;-82
2022/03/06 00:25:34;;;;;;;;;72.25;55.50;;;;;9.83;61.79;101715.47;5022635;28;45588;-83
2022/03/06 00:28:00;;;;;;;;;74.50;54.25;;;;;9.88;61.93;101719.78;5022573;28;45444;-82
2022/03/06 00:30:28;;;;;;;;;66.50;52.25;;;;;9.96;61.40;101743.56;5022485;28;45271;-82
2022/03/06 00:32:54;;;;;;;;;69.50;52.75;;;;;9.85;61.36;101732.28;5017575;28;45295;-81
2022/03/06 00:35:20;;;;;;;;;70.50;53.00;;;;;9.68;61.09;101720.28;5023111;28;46332;-82
2022/03/06 00:37:45;;;;;;;;;68.25;54.00;;;;;9.93;60.65;101754.28;5025043;28;45506;-82
2022/03/06 00:40:11;;;;;;;;;73.75;55.00;;;;;9.67;60.61;101712.34;5025587;28;45395;-82
2022/03/06 00:42:37;;;;;;;;;62.75;47.00;;;;;9.70;60.48;101720.25;5033787;28;45450;-82
2022/03/06 00:45:03;;;;;;;;;67.00;51.25;;;;;9.86;60.33;101753.56;5017673;28;45564;-82
2022/03/06 00:47:29;;;;;;;;;66.75;51.75;;;;;9.83;59.89;101750.09;5021776;28;45403;-82
2022/03/06 00:49:55;;;;;;;;;68.50;52.00;;;;;9.77;60.15;101747.59;5021422;28;45435;-82
2022/03/06 00:52:20;;;;;;;;;69.50;53.50;;;;;9.78;59.98;101759.97;5022309;28;45491;-82
2022/03/06 00:54:45;;;;;;;;;69.75;51.50;;;;;9.66;59.94;101743.38;5030383;28;45272;-82
2022/03/06 00:57:11;;;;;;;;;71.75;54.50;;;;;9.44;59.66;101708.44;5024183;28;45394;-82
2022/03/06 00:59:36;;;;;;;;;68.75;50.25;;;;;9.39;59.26;101705.00;5026762;28;45539;-82
2022/03/06 01:02:06;;;;;;;;;66.25;51.75;;;;;9.42;59.19;101712.91;5025135;28;45410;-82
2022/03/06 01:04:32;;;;;;;;;68.00;52.50;;;;;9.29;59.35;101700.78;5023739;28;46245;-82
2022/03/06 01:06:57;;;;;;;;;69.50;54.25;;;;;9.58;58.75;101757.81;5022375;28;45332;-82
2022/03/06 01:09:22;;;;;;;;;68.00;53.25;;;;;9.33;58.59;101717.56;5026420;28;45377;-82
2022/03/06 01:11:48;;;;;;;;;66.75;52.00;;;;;9.41;58.29;101728.91;5016433;28;46555;-82
2022/03/06 01:14:13;;;;;;;;;67.00;51.00;;;;;9.62;58.26;101772.78;5017613;28;45444;-82
2022/03/06 01:16:39;;;;;;;;;64.50;51.25;;;;;9.27;58.10;101718.56;5024735;28;45523;-82
2022/03/06 01:19:04;;;;;;;;;66.75;51.50;;;;;9.56;57.82;101771.13;5019011;28;45822;-82
2022/03/06 01:21:29;;;;;;;;;69.25;53.50;;;;;9.02;58.16;101689.00;5022858;28;45465;-82
2022/03/06 01:23:58;;;;;;;;;67.00;53.00;;;;;9.52;57.86;101778.31;5021468;28;45880;-82
2022/03/06 01:26:23;;;;;;;;;65.25;49.50;;;;;9.44;58.07;101772.28;5010139;28;45497;-82
2022/03/06 01:28:48;;;;;;;;;63.50;49.25;;;;;9.46;57.66;101774.94;5011949;28;45437;-82
2022/03/06 01:31:14;;;;;;;;;67.75;50.75;;;;;9.42;57.38;101783.88;5026966;28;45643;-82
2022/03/06 01:33:39;;;;;;;;;67.75;52.25;;;;;9.19;57.70;101742.69;5024855;28;45612;-82
2022/03/06 01:36:05;;;;;;;;;69.25;52.50;;;;;8.82;57.65;101692.09;5021212;28;45542;-82
2022/03/06 01:38:30;;;;;;;;;62.00;48.75;;;;;8.96;57.39;101715.72;5028338;28;45609;-82
2022/03/06 01:40:56;;;;;;;;;69.00;51.25;;;;;9.27;56.99;101782.41;5025718;28;45626;-82
2022/03/06 01:43:21;;;;;;;;;60.50;47.00;;;;;9.11;57.19;101757.94;5017360;28;46356;-82
2022/03/06 01:45:47;;;;;;;;;64.75;51.00;;;;;8.72;57.30;101702.03;5024271;28;45651;-82
2022/03/06 01:48:12;;;;;;;;;62.25;50.00;;;;;9.19;57.25;101785.25;5028047;28;45986;-82
2022/03/06 01:50:40;;;;;;;;;62.75;48.75;;;;;9.22;56.79;101792.28;5019388;28;45472;-82
2022/03/06 01:53:08;;;;;;;;;68.00;52.00;;;;;9.14;56.86;101789.78;5024980;28;45938;-82
2022/03/06 01:55:35;;;;;;;;;67.25;52.50;;;;;8.92;57.32;101761.88;5024527;28;45284;-82
2022/03/06 01:58:03;;;;;;;;;66.25;53.00;;;;;8.60;57.09;101711.13;5034115;28;45521;-82
2022/03/06 02:00:32;;;;;;;;;67.50;52.75;;;;;8.98;57.57;101791.88;5023881;28;45409;-82
2022/03/06 02:02:57;;;;;;;;;60.75;48.00;;;;;8.94;56.95;101787.53;5018204;28;45651;-82
2022/03/06 02:05:24;;;;;;;;;66.25;53.00;;;;;8.82;57.30;101774.50;5027807;28;45395;-82
2022/03/06 02:07:49;;;;;;;;;62.75;49.00;;;;;8.90;56.71;101788.53;5026291;28;45361;-82
2022/03/06 02:10:15;;;;;;;;;65.50;51.00;;;;;8.88;57.08;101785.00;5025187;28;45377;-82
2022/03/06 02:12:42;;;;;;;;;67.00;51.25;;;;;8.56;56.92;101751.94;5028686;28;45308;-82
2022/03/06 02:15:09;;;;;;;;;68.25;52.00;;;;;8.78;57.18;101786.97;5094941;27;45484;-82
2022/03/06 02:17:37;;;;;;;;;66.50;52.50;;;;;8.61;56.77;101765.16;5009350;28;45424;-82
2022/03/06 02:20:09;;;;;;;;;64.50;51.00;;;;;8.68;56.85;101790.69;5056023;27;45622;-82
2022/03/06 02:22:40;;;;;;;;;64.00;51.00;;;;;8.63;57.00;101788.13;5027493;28;46408;-82
2022/03/06 02:25:15;;;;;;;;;62.50;50.25;;;;;8.41;56.76;101760.22;5028254;28;45371;-82
2022/03/06 02:27:41;;;;;;;;;60.25;46.50;;;;;8.30;56.89;101736.47;5026734;27;45399;-82
2022/03/06 02:30:09;;;;;;;;;62.00;48.75;;;;;7.58;56.43;101627.13;5013348;27;45663;-82
2022/03/06 02:32:37;;;;;;;;;64.00;50.00;;;;;8.45;56.49;101781.41;5027270;28;46353;-82
2022/03/06 02:35:03;;;;;;;;;64.75;49.25;;;;;8.40;56.46;101775.25;5034907;28;45760;-82
2022/03/06 02:37:29;;;;;;;;;66.50;51.25;;;;;8.37;56.45;101785.06;5030083;28;45494;-82
2022/03/06 02:39:54;;;;;;;;;64.00;48.75;;;;;8.09;56.57;101745.69;5023393;28;45609;-82
2022/03/06 02:42:23;;;;;;;;;64.25;49.00;;;;;8.20;56.45;101764.97;5025428;28;48288;-82
2022/03/06 02:44:48;;;;;;;;;64.75;48.75;;;;;8.13;56.02;101762.47;5010788;28;45454;-82
2022/03/06 02:47:14;;;;;;;;;56.75;47.00;;;;;7.98;56.35;101740.59;5023455;28;45463;-82
2022/03/06 02:49:39;;;;;;;;;66.25;49.75;;;;;8.18;56.48;101790.69;5023571;28;45497;-82
2022/03/06 02:52:08;;;;;;;;;63.75;49.00;;;;;8.08;55.90;101774.91;5022987;28;45446;-82
2022/03/06 02:54:33;;;;;;;;;61.25;47.25;;;;;7.70;56.23;101720.69;5023886;28;45314;-82
2022/03/06 02:56:59;;;;;;;;;61.25;49.25;;;;;7.57;55.96;101712.94;5006747;28;45551;-82
2022/03/06 02:59:24;;;;;;;;;59.00;48.25;;;;;7.74;56.28;101741.84;5024371;28;45349;-82
2022/03/06 03:01:50;;;;;;;;;60.25;47.25;;;;;7.94;56.33;101785.78;5018276;28;45601;-82
2022/03/06 03:04:15;;;;;;;;;65.75;50.75;;;;;7.58;56.14;101722.63;5024108;28;45417;-82
2022/03/06 03:06:40;;;;;;;;;63.00;48.75;;;;;7.90;55.85;101778.78;5027804;28;45419;-82
2022/03/06 03:09:07;;;;;;;;;61.50;49.00;;;;;7.91;56.32;101794.66;5023494;27;45387;-82
2022/03/06 03:11:34;;;;;;;;;61.25;48.50;;;;;7.89;55.69;101787.63;5025940;28;45455;-82
2022/03/06 03:14:01;;;;;;;;;60.00;47.25;;;;;7.17;56.00;101681.72;5024865;28;45425;-81
2022/03/06 03:16:27;;;;;;;;;55.00;43.75;;;;;7.80;56.25;101792.19;5025112;28;45399;-82
2022/03/06 03:18:52;;;;;;;;;58.00;46.25;;;;;7.41;56.00;101729.97;5092846;27;45698;-82
2022/03/06 03:21:18;;;;;;;;;59.25;46.75;;;;;7.48;56.25;101736.94;5023537;28;46370;-82
2022/03/06 03:23:43;;;;;;;;;62.00;47.25;;;;;7.50;55.84;101748.41;5025299;28;45343;-82
2022/03/06 03:26:09;;;;;;;;;64.50;49.00;;;;;7.62;56.00;101776.53;5018379;28;45406;-82
2022/03/06 03:28:34;;;;;;;;;61.00;50.25;;;;;7.64;56.49;101784.47;5024343;28;45311;-82
2022/03/06 03:31:00;;;;;;;;;60.50;49.00;;;;;7.56;56.43;101780.16;5024110;28;46017;-82
2022/03/06 03:33:25;;;;;;;;;63.25;49.00;;;;;7.48;56.44;101770.56;5024102;28;45708;-82
2022/03/06 03:35:50;;;;;;;;;59.75;48.00;;;;;7.23;56.01;101740.84;5028835;28;45423;-82
2022/03/06 03:38:16;;;;;;;;;58.50;47.00;;;;;7.20;56.27;101749.72;5013058;27;45655;-82
2022/03/06 03:40:41;;;;;;;;;61.00;48.75;;;;;6.97;56.61;101707.59;5024958;28;49422;-81
2022/03/06 03:43:06;;;;;;;;;64.75;51.00;;;;;7.30;56.61;101766.38;5021674;28;45480;-82
2022/03/06 03:45:32;;;;;;;;;60.50;49.00;;;;;7.36;56.46;101793.69;5023534;28;45520;-82
2022/03/06 03:47:57;;;;;;;;;63.75;48.00;;;;;7.36;56.93;101806.94;5026878;28;45358;-82
2022/03/06 03:50:23;;;;;;;;;59.25;47.25;;;;;6.89;57.05;101742.16;5027091;28;46350;-82
2022/03/06 03:52:48;;;;;;;;;61.50;50.25;;;;;7.13;56.84;101788.69;5023873;28;45599;-82
2022/03/06 03:55:13;;;;;;;;;65.25;50.00;;;;;7.00;57.03;101765.91;5023235;28;45565;-82
2022/03/06 03:57:39;;;;;;;;;57.50;45.50;;;;;7.17;57.34;101800.16;5013251;28;45537;-82
2022/03/06 04:00:05;;;;;;;;;67.50;50.25;;;;;7.22;56.89;101819.50;5022354;28;45611;-82
2022/03/06 04:02:32;;;;;;;;;61.25;46.75;;;;;6.80;56.76;101752.00;5024699;27;45474;-82
2022/03/06 04:04:57;;;;;;;;;60.25;48.25;;;;;6.94;56.90;101782.72;5025030;28;45584;-82
2022/03/06 04:07:23;;;;;;;;;60.00;48.00;;;;;7.07;57.04;101804.69;5026052;28;46054;-82
2022/03/06 04:09:48;;;;;;;;;62.50;48.75;;;;;6.96;57.47;101788.03;5015001;28;47252;-82
2022/03/06 04:12:13;;;;;;;;;65.50;51.00;;;;;6.83;56.89;101770.50;5034006;28;45469;-82
2022/03/06 04:14:39;;;;;;;;;60.25;48.50;;;;;6.84;57.25;101781.09;5034042;28;45578;-82
2022/03/06 04:17:04;;;;;;;;;62.25;48.25;;;;;6.89;57.58;101796.94;5033331;27;45473;-82
2022/03/06 04:19:29;;;;;;;;;58.25;47.50;;;;;7.15;57.62;101839.91;5033310;28;46475;-82
2022/03/06 04:21:55;;;;;;;;;62.00;49.00;;;;;7.15;57.35;101839.91;5033418;28;45471;-82
2022/03/06 04:24:21;;;;;;;;;60.25;48.00;;;;;7.13;57.29;101833.75;5033846;28;45223;-82
2022/03/06 04:26:46;;;;;;;;;63.00;49.25;;;;;6.85;57.10;101800.53;5033615;28;45618;-81
2022/03/06 04:29:11;;;;;;;;;60.25;48.75;;;;;7.01;57.72;101819.78;5033592;28;46510;-82
2022/03/06 04:31:36;;;;;;;;;64.75;50.00;;;;;6.89;57.27;101808.41;5033489;28;45489;-81
2022/03/06 04:34:02;;;;;;;;;60.00;48.75;;;;;6.67;57.69;101783.03;5033441;28;45512;-82
2022/03/06 04:36:27;;;;;;;;;62.50;49.25;;;;;6.72;57.53;101799.78;5034018;27;45623;-81
2022/03/06 04:38:53;;;;;;;;;65.00;48.25;;;;;6.90;58.14;101838.44;5032235;28;45581;-82
2022/03/06 04:41:18;;;;;;;;;59.50;46.50;;;;;6.79;57.98;101830.63;5033028;28;45506;-81
2022/03/06 04:43:44;;;;;;;;;64.00;48.50;;;;;6.60;57.84;101800.78;5033070;28;45554;-82
2022/03/06 04:46:10;;;;;;;;;61.25;48.75;;;;;6.85;58.05;101845.56;5033665;28;45445;-82
2022/03/06 04:48:35;;;;;;;;;62.00;48.25;;;;;6.37;57.93;101773.63;5033474;28;46306;-81
2022/03/06 04:51:01;;;;;;;;;62.75;49.25;;;;;6.45;58.13;101785.06;5033442;28;45334;-81
2022/03/06 04:53:26;;;;;;;;;65.25;49.75;;;;;6.55;57.89;101811.44;5034385;27;45330;-82
2022/03/06 04:55:52;;;;;;;;;60.25;48.50;;;;;6.36;58.05;101775.41;5034680;27;45545;-82
2022/03/06 04:58:17;;;;;;;;;62.50;47.75;;;;;6.12;57.90;101744.75;5033627;28;45636;-81
2022/03/06 05:00:42;;;;;;;;;61.25;49.00;;;;;6.50;58.67;101815.88;5013961;28;45500;-82
2022/03/06 05:03:08;;;;;;;;;57.25;46.25;;;;;6.05;58.67;101741.28;5032935;28;45709;-81
2022/03/06 05:05:33;;;;;;;;;57.50;47.75;;;;;6.52;58.61;101829.13;5034315;28;45458;-81
2022/03/06 05:07:59;;;;;;;;;56.25;45.00;;;;;6.44;58.66;101815.06;5024578;28;45585;-81
2022/03/06 05:10:24;;;;;;;;;64.00;49.50;;;;;6.71;58.63;101858.94;5024222;28;45774;-82
2022/03/06 05:12:50;;;;;;;;;61.00;50.00;;;;;6.24;58.38;101781.69;5022357;28;45332;-82
2022/03/06 05:15:15;;;;;;;;;59.25;48.75;;;;;6.69;58.76;101855.44;5102435;27;45458;-82
2022/03/06 05:17:41;;;;;;;;;57.00;47.75;;;;;6.65;58.74;101864.28;5039622;27;46430;-80
2022/03/06 05:20:08;;;;;;;;;58.75;47.75;;;;;6.45;58.50;101838.00;5001992;27;45673;-81
2022/03/06 05:22:34;;;;;;;;;66.00;52.00;;;;;6.63;58.61;101863.47;5016770;28;45808;-81
2022/03/06 05:25:00;;;;;;;;;61.25;49.00;;;;;6.62;58.35;101864.34;5025919;28;45822;-81
2022/03/06 05:27:26;;;;;;;;;67.75;51.25;;;;;6.43;58.63;101850.38;5031108;27;45386;-81
2022/03/06 05:29:52;;;;;;;;;62.25;50.50;;;;;6.30;59.01;101841.69;5025702;28;45405;-81
2022/03/06 05:32:18;;;;;;;;;61.75;49.00;;;;;6.52;58.96;101884.75;5025565;28;45383;-81
2022/03/06 05:34:43;;;;;;;;;64.00;50.00;;;;;6.18;59.21;101826.78;5011852;28;45479;-81
2022/03/06 05:37:08;;;;;;;;;60.00;49.75;;;;;6.27;58.61;101842.56;5021860;28;46433;-81
2022/03/06 05:39:34;;;;;;;;;61.50;47.50;;;;;6.47;58.66;101883.91;5024961;28;45514;-81
2022/03/06 05:41:59;;;;;;;;;58.75;47.00;;;;;6.45;58.64;101875.09;5025669;28;45925;-81
2022/03/06 05:44:24;;;;;;;;;64.50;50.75;;;;;5.97;59.19;101803.09;5030548;28;45510;-81
2022/03/06 05:46:50;;;;;;;;;61.50;49.00;;;;;6.30;59.49;101862.88;5021350;28;45561;-81
2022/03/06 05:49:15;;;;;;;;;58.75;47.50;;;;;6.02;59.10;101820.72;5028634;28;45575;-81
2022/03/06 05:51:42;;;;;;;;;59.75;48.25;;;;;6.38;59.46;101886.63;5025129;28;45520;-81
2022/03/06 05:54:08;;;;;;;;;65.50;51.00;;;;;6.36;59.35;101889.28;5018997;27;45514;-81
2022/03/06 05:56:34;;;;;;;;;59.00;48.00;;;;;6.32;59.08;101890.19;5027878;28;46726;-81
2022/03/06 05:59:00;;;;;;;;;60.50;50.75;;;;;6.18;59.60;101877.06;5021360;28;45527;-81
2022/03/06 06:01:28;;;;;;;;;60.25;48.00;;;;;6.28;59.43;101896.41;5027314;28;45430;-81
2022/03/06 06:03:53;;;;;;;;;63.25;51.00;;;;;5.81;59.37;101820.84;5025099;28;45862;-80
2022/03/06 06:06:18;;;;;;;;;62.50;49.75;;;;;5.90;59.49;101845.47;5034754;28;45213;-81
2022/03/06 06:08:44;;;;;;;;;61.75;50.00;;;;;6.00;59.54;101856.91;5026030;28;52792;-81
2022/03/06 06:11:09;;;;;;;;;60.75;50.75;;;;;6.04;59.43;101866.56;5024553;28;45566;-80
2022/03/06 06:13:34;;;;;;;;;61.50;47.75;;;;;6.03;59.51;101875.38;5023153;28;45564;-81
2022/03/06 06:15:59;;;;;;;;;53.00;42.50;;;;;5.92;59.63;101850.72;5026574;27;46399;-80
2022/03/06 06:18:27;;;;;;;;;57.50;48.00;;;;;6.15;59.48;101890.31;5017194;28;45522;-81
2022/03/06 06:20:53;;;;;;;;;67.50;51.50;;;;;6.22;59.67;101904.38;5016861;28;45487;-81
2022/03/06 06:23:19;;;;;;;;;60.75;48.50;;;;;5.99;59.10;101860.41;5019777;28;45457;-80
2022/03/06 06:25:44;;;;;;;;;64.25;51.00;;;;;6.08;59.57;101878.88;5031234;28;46556;-81
2022/03/06 06:28:10;;;;;;;;;66.50;51.00;;;;;6.18;59.27;101892.97;5025366;28;45663;-80
2022/03/06 06:30:35;;;;;;;;;61.50;48.50;;;;;6.25;59.63;101910.56;5027730;28;45890;-80
2022/03/06 06:33:01;;;;;;;;;67.75;52.75;;;;;6.21;59.18;101911.44;5020532;28;45526;-80
2022/03/06 06:35:26;;;;;;;;;62.25;49.00;;;;;5.77;59.21;101848.19;5016823;28;46970;-81
2022/03/06 06:37:51;;;;;;;;;66.00;51.75;;;;;5.81;59.27;101850.81;5025777;28;45642;-80
2022/03/06 06:40:17;;;;;;;;;71.25;53.25;;;;;5.81;59.57;101849.94;5026839;28;45522;-80
2022/03/06 06:42:42;;;;;;;;;63.75;51.75;;;;;6.19;59.27;101926.47;5017911;28;45503;-81
2022/03/06 06:45:08;;;;;;;;;64.00;49.75;;;;;6.06;59.79;101893.91;5029366;28;46571;-80
2022/03/06 06:47:33;;;;;;;;;66.00;50.00;;;;;5.81;59.25;101849.94;5026706;28;45524;-81
2022/03/06 06:49:58;;;;;;;;;66.50;52.25;;;;;5.82;59.21;101860.50;5026847;28;45475;-80
2022/03/06 06:52:24;;;;;;;;;62.00;49.50;;;;;5.85;59.51;101863.16;5025216;28;45568;-80
2022/03/06 06:54:49;;;;;;;;;66.00;50.25;;;;;5.78;59.12;101852.59;5005804;28;47720;-81
2022/03/06 06:57:15;;;;;;;;;68.25;53.25;;;;;5.96;59.21;101883.38;5023131;28;45331;-80
2022/03/06 06:59:40;;;;;;;;;68.00;51.50;;;;;6.25;59.25;101922.88;5024311;28;46469;-80
2022/03/06 07:02:05;;;;;;;;;68.00;53.25;;;;;6.26;59.22;101935.25;5025756;28;45366;-81
2022/03/06 07:04:31;;;;;;;;;63.25;51.00;;;;;6.24;59.41;101929.94;5027352;28;46050;-80
2022/03/06 07:06:56;;;;;;;;;64.75;52.25;;;;;5.95;58.99;101865.72;5029118;28;45445;-81
2022/03/06 07:09:21;;;;;;;;;62.50;49.75;;;;;5.83;59.01;101849.03;5005412;28;47166;-80
2022/03/06 07:11:46;;;;;;;;;65.50;53.00;;;;;6.26;59.02;101927.31;5017936;28;45591;-80
2022/03/06 07:14:12;;;;;;;;;62.00;48.75;;;;;6.26;59.24;101932.59;5073239;27;47897;-80
2022/03/06 07:16:37;;;;;;;;;65.25;49.25;;;;;6.32;58.93;101935.19;5021495;28;45394;-80
2022/03/06 07:19:02;;;;;;;;;66.50;50.75;;;;;6.33;58.54;101934.31;5027955;28;45414;-80
2022/03/06 07:21:28;;;;;;;;;62.00;48.25;;;;;6.01;58.74;101873.66;5028124;28;45370;-80
2022/03/06 07:23:53;;;;;;;;;65.75;51.50;;;;;6.08;58.76;101884.16;5019711;28;53312;-80
2022/03/06 07:26:18;;;;;;;;;60.50;49.50;;;;;6.48;58.76;101958.03;5022298;28;45516;-80
2022/03/06 07:28:44;;;;;;;;;70.00;53.75;;;;;6.45;58.28;101943.94;5025278;28;45356;-80
2022/03/06 07:31:09;;;;;;;;;66.50;53.00;;;;;6.38;58.28;101934.28;5017715;27;46074;-80
2022/03/06 07:33:35;;;;;;;;;66.75;51.00;;;;;6.45;58.25;101942.16;5014774;28;48176;-81
2022/03/06 07:36:00;;;;;;;;;66.00;52.00;;;;;6.58;57.89;101961.50;5026270;28;45412;-80
2022/03/06 07:38:25;;;;;;;;;64.50;48.75;;;;;6.57;58.03;101953.56;5022486;28;45436;-80
2022/03/06 07:40:51;;;;;;;;;68.00;53.75;;;;;6.55;57.86;101965.06;5022232;28;45705;-80
2022/03/06 07:43:16;;;;;;;;;64.25;50.50;;;;;6.39;57.43;101928.09;5023378;28;45703;-80
2022/03/06 07:45:42;;;;;;;;;65.50;53.00;;;;;6.67;57.32;101969.38;5030366;28;45386;-80
2022/03/06 07:48:07;;;;;;;;;69.00;54.00;;;;;6.78;57.56;101984.31;5026075;28;45358;-81
2022/03/06 07:50:32;;;;;;;;;64.75;50.50;;;;;6.65;57.50;101963.22;5021694;27;45304;-80
2022/03/06 07:52:58;;;;;;;;;63.25;50.00;;;;;6.38;57.32;101910.44;5020588;28;46010;-79
2022/03/06 07:55:23;;;;;;;;;67.25;52.50;;;;;6.87;57.21;101993.06;5022357;28;45400;-80
2022/03/06 07:57:49;;;;;;;;;64.50;51.75;;;;;6.51;56.78;101934.19;5090069;27;45526;-79
2022/03/06 08:00:14;;;;;;;;;65.75;50.25;;;;;6.56;57.14;101939.44;5019474;28;45292;-80
2022/03/06 08:02:40;;;;;;;;;228.50;199.25;;;;;6.63;56.97;101940.28;5031946;28;45455;-81
2022/03/06 08:05:07;;;;;;;;;55.00;43.50;;;;;6.88;57.15;101980.69;5028708;28;45468;-80
2022/03/06 08:07:33;;;;;;;;;68.00;49.50;;;;;6.84;56.71;101965.72;5017202;28;45502;-80
2022/03/06 08:09:58;;;;;;;;;66.25;50.00;;;;;6.99;56.48;101986.78;5027735;28;45947;-79
2022/03/06 08:12:25;;;;;;;;;63.25;50.00;;;;;6.83;56.45;101956.00;5024239;28;45526;-80
2022/03/06 08:14:51;;;;;;;;;65.25;50.50;;;;;6.96;56.40;101976.22;5017255;27;45430;-80
2022/03/06 08:17:17;;;;;;;;;66.00;47.50;;;;;7.02;56.47;101972.59;5029134;27;45427;-80
2022/03/06 08:19:42;;;;;;;;;64.75;51.00;;;;;7.32;55.78;102016.50;5049312;27;45435;-81
2022/03/06 08:22:08;;;;;;;;;66.50;51.50;;;;;7.24;55.52;101987.44;5027766;27;45745;-80
2022/03/06 08:24:33;;;;;;;;;61.00;50.00;;;;;7.04;55.50;101950.50;5032563;28;45501;-80
2022/03/06 08:26:58;;;;;;;;;61.75;49.25;;;;;7.16;54.92;101976.91;5026677;27;45660;-80
2022/03/06 08:29:24;;;;;;;;;59.00;46.50;;;;;6.74;54.24;101886.31;5031319;28;45611;-81
2022/03/06 08:31:49;;;;;;;;;56.00;45.00;;;;;7.43;54.70;101982.81;5029940;28;45378;-79
2022/03/06 08:34:14;;;;;;;;;62.50;46.00;;;;;7.61;54.14;101989.69;5020624;28;45357;-80
2022/03/06 08:36:40;;;;;;;;;61.25;49.25;;;;;7.80;53.64;102017.78;5021028;28;45414;-81
2022/03/06 08:39:05;;;;;;;;;60.50;47.75;;;;;7.73;53.92;101988.69;5023518;28;45711;-80
2022/03/06 08:41:31;;;;;;;;;63.50;49.00;;;;;7.65;53.20;101961.34;5020257;28;45383;-82
2022/03/06 08:43:56;;;;;;;;;63.25;49.50;;;;;8.11;53.18;102019.19;5015743;28;45953;-81
2022/03/06 08:46:21;;;;;;;;;59.25;46.25;;;;;8.19;53.06;102020.84;5023127;28;45424;-83
2022/03/06 08:48:47;;;;;;;;;62.00;49.00;;;;;8.32;53.01;102023.31;5017868;28;45657;-81
2022/03/06 08:51:13;;;;;;;;;59.50;46.00;;;;;8.12;51.94;101983.75;5024846;28;48426;-84
2022/03/06 08:53:38;;;;;;;;;62.25;48.25;;;;;8.13;51.95;101965.16;5016227;28;45438;-84
2022/03/06 08:56:04;;;;;;;;;63.00;48.50;;;;;8.18;51.84;101957.13;5035064;28;45457;-84
2022/03/06 08:58:29;;;;;;;;;57.50;45.50;;;;;8.06;52.26;101920.13;5028404;27;45564;-84
2022/03/06 09:00:55;;;;;;;;;66.50;50.75;;;;;8.57;51.47;101992.88;5021100;28;46305;-84
2022/03/06 09:03:20;;;;;;;;;61.75;47.50;;;;;8.62;50.60;101958.25;5022820;28;45430;-85
2022/03/06 09:05:46;;;;;;;;;61.50;48.00;;;;;9.33;49.92;102031.50;5022793;27;45432;-83
2022/03/06 09:08:11;;;;;;;;;56.25;45.75;;;;;8.99;49.16;101915.06;5038919;28;45608;-85
2022/03/06 09:10:38;;;;;;;;;61.50;46.75;;;;;9.82;48.89;101982.66;5051693;27;46230;-83
2022/03/06 09:13:05;;;;;;;;;57.00;45.50;;;;;10.12;47.67;101991.78;5030546;28;45364;-89
2022/03/06 09:15:30;;;;;;;;;58.00;47.00;;;;;10.45;46.61;101992.84;5024218;27;45398;-88
2022/03/06 09:17:56;;;;;;;;;55.75;45.25;;;;;11.16;45.00;102026.66;5040466;28;45746;-85
2022/03/06 09:20:22;;;;;;;;;58.75;46.00;;;;;10.61;43.89;101891.19;5046471;27;47716;-90
2022/03/06 09:22:48;;;;;;;;;58.50;45.00;;;;;11.24;42.84;101941.09;5027516;28;45442;-93
2022/03/06 09:25:14;;;;;;;;;52.50;43.25;;;;;11.73;41.82;101966.41;5038905;28;45409;-89
2022/03/06 09:27:40;;;;;;;;;50.00;40.25;;;;;11.65;41.84;101887.44;5020179;28;45417;-90
2022/03/06 09:30:07;;;;;;;;;54.75;44.75;;;;;12.52;40.66;101956.88;5029641;28;46163;-88
2022/03/06 09:32:33;;;;;;;;;51.75;41.75;;;;;12.63;39.44;101940.50;5021632;28;45411;-87
2022/03/06 09:34:58;;;;;;;;;53.50;44.25;;;;;12.80;38.29;101932.78;5029776;28;45261;-86
2022/03/06 09:37:24;;;;;;;;;51.50;40.50;;;;;13.21;38.21;101940.31;5023995;28;45327;-87
2022/03/06 09:39:49;;;;;;;;;43.00;36.75;;;;;13.11;38.47;101872.84;5103652;27;47383;-86
2022/03/06 09:42:19;;;;;;;;;52.50;40.50;;;;;14.05;38.52;101977.41;5022053;28;45534;-87
2022/03/06 09:44:49;;;;;;;;;50.75;40.25;;;;;14.09;38.05;101935.25;5027967;28;45333;-94
2022/03/06 09:47:18;;;;;;;;;43.75;36.75;;;;;13.94;37.22;101856.34;5050951;27;45560;-91
2022/03/06 09:49:45;;;;;;;;;38.25;35.00;;;;;15.13;35.38;102040.22;5031683;28;46563;-88
2022/03/06 09:52:11;;;;;;;;;43.00;36.00;;;;;13.85;36.05;101795.91;5015319;28;45517;-89
2022/03/06 09:54:39;;;;;;;;;42.50;37.00;;;;;15.32;35.86;102043.84;5035064;28;45459;-91
2022/03/06 09:57:05;;;;;;;;;48.75;37.50;;;;;14.14;35.68;101818.88;5035699;27;45503;-88
2022/03/06 09:59:31;;;;;;;;;44.25;37.75;;;;;15.24;36.14;102002.13;5019990;27;48380;-88
2022/03/06 10:02:04;;;;;;;;;41.00;35.50;;;;;15.44;34.70;102044.28;5028366;28;45622;-89
2022/03/06 10:04:34;;;;;;;;;49.33;36.00;;;;;14.64;34.86;101906.22;5020306;28;45393;-88
2022/03/06 10:07:03;;;;;;;;;41.75;37.25;;;;;15.59;35.22;102035.53;5023813;27;45494;-88
2022/03/06 10:09:30;;;;;;;;;39.00;33.00;;;;;14.75;34.16;101878.97;5035499;27;47657;-88
2022/03/06 10:11:56;;;;;;;;;44.00;36.50;;;;;15.69;34.50;102012.69;5044040;27;45737;-88
2022/03/06 10:14:39;;;;;;;;;35.50;31.50;;;;;14.98;33.70;101860.03;5022878;28;45409;-88
2022/03/06 10:17:46;;;;;;;;;45.00;32.00;;;;;16.51;31.67;102031.34;5010066;28;45381;-89
2022/03/06 10:24:08;;;;;;;;;35.33;32.67;;;;;21.42;27.38;102014.50;4976586;28;45618;-89
2022/03/06 10:27:35;;;;;;;;;35.67;31.33;;;;;24.16;24.17;102008.50;4978889;28;45948;-93
2022/03/06 10:30:00;;;;;;;;;34.00;32.67;;;;;25.45;21.97;101927.63;4910353;28;45710;-86
2022/03/06 10:32:41;;;;;;;;;38.67;33.33;;;;;26.08;19.07;101852.84;4923788;28;47223;-86
2022/03/06 10:35:07;;;;;;;;;33.67;31.00;;;;;26.73;18.40;101815.72;4935412;28;45470;-87
2022/03/06 10:37:33;;;;;;;;;32.33;26.00;;;;;27.81;17.79;101857.28;4913635;28;45539;-89
2022/03/06 10:39:58;;;;;;;;;34.33;32.33;;;;;28.56;17.49;101881.81;4931113;28;45654;-90
2022/03/06 10:42:23;;;;;;;;;26.67;24.67;;;;;29.27;17.26;101864.38;4915548;28;48162;-89
2022/03/06 10:44:49;;;;;;;;;28.33;28.33;;;;;30.82;16.22;102000.78;4919168;28;45632;-90
2022/03/06 10:47:15;;;;;;;;;32.00;28.00;;;;;30.75;16.67;101879.47;4918275;28;45633;-91
2022/03/06 10:50:11;;;;;;;;;30.33;29.00;;;;;31.75;16.40;101915.84;4917895;28;45775;-92
2022/03/06 10:52:55;;;;;;;;;28.00;24.00;;;;;32.76;14.99;101999.69;4952626;28;46368;-91
2022/03/06 10:55:39;;;;;;;;;27.33;23.67;;;;;32.26;14.49;101915.41;4950951;28;45407;-87
2022/03/06 10:59:17;;;;;;;;;;;;;;;;;;;;;
2022/03/06 11:01:48;;;;;;;;;20.00;20.00;;;;;32.29;14.68;101997.00;4949220;28;61723;-89
2022/03/06 11:18:56;;;;;;;;;18.67;17.67;;;;;30.13;14.11;101994.50;4941817;28;45745;-94
2022/03/06 11:21:24;;;;;;;;;17.67;16.00;;;;;28.37;14.20;101844.41;4924102;28;45486;-89
2022/03/06 11:23:52;;;;;;;;;23.00;20.33;;;;;28.12;14.20;101882.56;4942324;28;45435;-88
2022/03/06 11:26:45;;;;;;;;;20.00;20.00;;;;;27.92;15.42;101988.69;4945943;28;45803;-89
2022/03/06 11:29:22;;;;;;;;;22.00;22.00;;;;;27.14;15.86;101991.53;4938489;28;46236;-89
2022/03/06 11:31:50;;;;;;;;;19.00;17.33;;;;;26.74;16.04;101983.47;4948431;28;45363;-89
2022/03/06 11:34:25;;;;;;;;;22.33;20.00;;;;;25.45;15.53;101837.56;4937915;28;45905;-89